Historique des mesures à Cassis (13260), France
Quotidien Résumé Fevrier 1, 2018 Unités:  Métrique    US   Métrique/US
« Précédent (Jour)
Suivant (Jour) »
Quotidien Hebdomadaire Mensuel Annuel Période au choix
  Maximum: Minimum: Moyenne:
Température: TemperatureC °C 8.4 °C 9.7 °C
Point de rosée: DewpointC °C 2.4 °C 6 °C
Humidité: Humidity % 66 % 74 %
Vitesse du vent: 0 km/h 0 km/h 8.9 km/h
Rafales: 0 km/h - -
Vent:- - SW
Pression: PressurehPa hPa 1000.6 hPa -
Précipitations: 12.7 mm    
Historical Graphs
 
 
Mesures pour : Fevrier 1, 2018
Heure Temperature Point de rosée Pression Vent Vitesse du vent Rafales Humidité Pluie (par heure)
TemperatureC °C DewpointC °C PressurehPa hPa Calm     Humidity % 0 mm
00:12 10.8 °C 6.6 °C 1012.4 hPa Calm     75 % 0 mm
01:12 11.2 °C 7.1 °C 1011.4 hPa Calm     76 % 0 mm
02:12 11.5 °C 8.2 °C 1010.4 hPa WSW 4.7 km/h 10.9 km/h 80 % 0 mm
03:12 11.8 °C 8.8 °C 1009.4 hPa Calm   6.4 km/h 82 % 0 mm
04:12 11.6 °C 8.6 °C 1008.7 hPa WSW 12.2 km/h 19.2 km/h 82 % 0 mm
05:12 10.9 °C 7.6 °C 1007.3 hPa West 14 km/h 14 km/h 80 % 0 mm
06:12 10.3 °C 7.2 °C 1007.3 hPa West 11.6 km/h 17.4 km/h 81 % 0 mm
07:12 10.2 °C 6.9 °C 1006.7 hPa WNW 14 km/h 15 km/h 80 % 0 mm
08:12 10.3 °C 6.8 °C 1006.0 hPa WNW 8.9 km/h 8.9 km/h 79 % 0 mm
10:12 10.4 °C 7.3 °C 1005.6 hPa Calm     81 % 0 mm
11:12 10.1 °C 6.9 °C 1005.6 hPa WNW 12.7 km/h 12.7 km/h 81 % 12.7 mm
12:12 10.1 °C 6.9 °C 1005.0 hPa North 2.9 km/h 12.2 km/h 81 % 0 mm
13:12 10.5 °C 7.2 °C 1003.9 hPa Calm     80 % 0 mm
14:12 10.4 °C 6.9 °C 1002.9 hPa NW 9.3 km/h 24.8 km/h 79 % 0 mm
15:12 10.3 °C 6.6 °C 1002.6 hPa WNW 12.7 km/h 14.5 km/h 78 % 0 mm
16:12 9.7 °C 6.2 °C 1001.9 hPa West 9.3 km/h 16.9 km/h 79 % 0 mm
17:12 9.6 °C 5.9 °C 1001.2 hPa WNW 7.6 km/h 14 km/h 78 % 0 mm
18:12 9.2 °C 5.1 °C 1001.6 hPa North 7.6 km/h 16.3 km/h 76 % 0 mm
19:12 9.1 °C 4.8 °C 1001.6 hPa West 20.3 km/h 20.9 km/h 75 % 0 mm
20:12 8.9 °C 4.4 °C 1001.2 hPa WNW 25.4 km/h 25.4 km/h 74 % 0 mm
21:12 8.7 °C 3.9 °C 1001.2 hPa North 16.3 km/h 39.4 km/h 72 % 0 mm
22:12 8.5 °C 2.5 °C 1000.9 hPa NNE 13.2 km/h 23 km/h 66 % 0 mm
23:12 8.4 °C 2.4 °C 1000.6 hPa West 10.9 km/h 10.9 km/h 66 % 0 mm
Observations météo à CASSIS
WU-History script by Weather Underground - 1 mb